createdAt,value
2017-07-01T15:29:43.670Z,0
2017-07-01T15:30:45.027Z,0
2017-07-01T15:32:06.504Z,0
2017-07-01T15:33:07.820Z,0
2017-07-01T15:34:29.311Z,0
2017-07-01T15:37:25.339Z,0
2017-07-01T15:38:26.700Z,0
2017-07-01T15:38:53.643Z,0
2017-07-01T15:39:55.024Z,0
2017-07-01T15:40:56.390Z,0
2017-07-01T15:41:57.755Z,0
2017-07-01T16:02:34.801Z,0
2017-07-01T16:03:07.412Z,0
2017-07-01T16:04:08.773Z,0
2017-07-01T16:05:31.140Z,55
2017-07-01T16:06:32.653Z,55
2017-07-01T16:07:34.819Z,50
2017-07-01T16:08:36.987Z,50
2017-07-01T16:09:38.521Z,65
2017-07-01T16:10:40.132Z,80
2017-07-01T16:11:41.817Z,60
2017-07-01T16:12:43.417Z,50
2017-07-01T16:13:45.260Z,115
2017-07-01T16:14:47.028Z,95
2017-07-01T16:15:48.743Z,90
2017-07-01T16:16:50.463Z,100
2017-07-01T16:17:52.038Z,95
2017-07-01T16:18:53.648Z,100
2017-07-01T16:19:55.325Z,175
2017-07-01T16:20:57.079Z,160
2017-07-01T16:21:58.734Z,155
2017-07-01T16:23:00.522Z,95
2017-07-01T16:24:02.230Z,95
2017-07-01T16:25:03.924Z,80
2017-07-01T16:26:05.639Z,60
2017-07-01T16:27:07.419Z,60
2017-07-01T16:28:09.168Z,65
2017-07-01T16:29:10.886Z,95
2017-07-01T16:30:12.605Z,90
2017-07-01T16:31:14.329Z,100
2017-07-01T16:32:16.188Z,105
2017-07-01T16:33:17.934Z,85
2017-07-01T16:34:19.678Z,140
2017-07-01T16:35:21.452Z,120
2017-07-01T16:36:23.083Z,185
2017-07-01T16:37:24.797Z,150
2017-07-01T16:38:26.596Z,140
2017-07-01T16:39:28.281Z,115
2017-07-01T16:40:30.038Z,115
2017-07-01T16:41:31.759Z,115
2017-07-01T16:42:33.363Z,90
2017-07-01T16:43:35.079Z,80
2017-07-01T16:44:36.919Z,100
2017-07-01T16:45:38.636Z,80
2017-07-01T16:46:40.482Z,95
2017-07-01T16:47:42.288Z,120
2017-07-01T16:48:43.922Z,80
2017-07-01T16:49:45.592Z,60
2017-07-01T16:50:47.572Z,50
2017-07-01T16:51:49.469Z,70
2017-07-01T16:52:51.180Z,70
2017-07-01T16:53:53.121Z,65
2017-07-01T16:54:54.937Z,65
2017-07-01T16:55:56.746Z,50
2017-07-01T16:56:58.642Z,45
2017-07-01T16:58:00.762Z,65
2017-07-01T16:59:02.512Z,65
2017-07-01T17:00:04.668Z,65
2017-07-01T17:01:06.623Z,90
2017-07-01T17:02:08.509Z,85
2017-07-01T17:03:10.334Z,60
2017-07-01T17:04:12.108Z,70
2017-07-01T17:05:13.884Z,80
2017-07-01T17:06:15.694Z,65
2017-07-01T17:07:17.579Z,70
2017-07-01T17:08:19.373Z,70
2017-07-01T17:09:21.086Z,60
2017-07-01T17:10:22.883Z,65
2017-07-01T17:11:24.690Z,70
2017-07-01T17:12:26.476Z,60
2017-07-01T17:13:28.417Z,55
2017-07-01T17:14:30.022Z,85
2017-07-01T17:15:31.707Z,60
2017-07-01T17:16:33.261Z,55
2017-07-01T17:17:34.792Z,95
2017-07-01T17:18:36.256Z,95
2017-07-01T17:19:37.940Z,90
2017-07-01T17:20:39.634Z,80
2017-07-01T17:21:41.335Z,50
2017-07-01T17:22:42.884Z,50
2017-07-01T17:23:44.635Z,40
2017-07-01T17:24:46.356Z,45
2017-07-01T17:25:48.241Z,50
2017-07-01T17:26:50.034Z,50
2017-07-01T17:27:51.620Z,35
2017-07-01T17:28:53.088Z,20
2017-07-01T17:29:54.897Z,10
2017-07-01T17:30:56.804Z,10
2017-07-01T17:31:58.504Z,10
2017-07-01T17:33:00.189Z,20
2017-07-01T17:34:02.330Z,20
2017-07-01T17:35:04.139Z,20
2017-07-01T17:36:05.805Z,35
2017-07-01T17:37:07.520Z,40
2017-07-01T17:38:08.959Z,45
2017-07-01T17:39:10.794Z,45
2017-07-01T17:40:12.448Z,50
2017-07-01T17:41:14.217Z,65
2017-07-01T17:42:15.943Z,70
2017-07-01T17:43:17.760Z,80
2017-07-01T17:44:19.536Z,90
2017-07-01T17:45:21.362Z,95
2017-07-01T17:46:23.144Z,95
2017-07-01T17:47:24.935Z,100
2017-07-01T17:48:26.728Z,90
2017-07-01T17:49:28.639Z,100
2017-07-01T17:50:30.528Z,95
2017-07-01T17:51:32.457Z,105
2017-07-01T17:52:34.218Z,105
2017-07-01T17:53:35.989Z,110
2017-07-01T17:54:37.697Z,105
2017-07-01T17:55:39.458Z,110
2017-07-01T17:56:41.159Z,100
2017-07-01T17:57:42.922Z,110
2017-07-01T17:58:44.773Z,105
2017-07-01T17:59:46.596Z,95
2017-07-01T18:00:48.187Z,120
2017-07-01T18:01:49.744Z,125
2017-07-01T18:02:51.316Z,130
2017-07-01T18:03:53.076Z,130
2017-07-01T18:04:54.536Z,145
2017-07-01T18:05:56.412Z,135
2017-07-01T18:06:58.078Z,125
2017-07-01T18:07:59.557Z,125
2017-07-01T18:09:02.146Z,120
2017-07-01T18:10:04.199Z,115
2017-07-01T18:11:05.993Z,120
2017-07-01T18:12:07.839Z,120
2017-07-01T18:13:09.646Z,115
2017-07-01T18:14:11.234Z,115
2017-07-01T18:15:13.838Z,120
2017-07-01T18:16:15.736Z,130
2017-07-01T18:17:17.863Z,125
2017-07-01T18:18:19.879Z,105
2017-07-01T18:19:21.604Z,120
2017-07-01T18:20:23.707Z,100
2017-07-01T18:21:25.533Z,110
2017-07-01T18:22:27.316Z,110
2017-07-01T18:23:29.340Z,120
2017-07-01T18:24:31.214Z,115
2017-07-01T18:25:33.429Z,110
2017-07-01T20:00:05.476Z,0
2017-07-01T20:01:06.953Z,0
2017-07-01T20:02:08.336Z,0
2017-07-01T20:03:09.767Z,0
2017-07-01T20:04:11.210Z,0
2017-07-01T20:05:12.633Z,0
2017-07-01T20:06:14.209Z,0
2017-07-01T20:07:15.958Z,0
2017-07-01T20:08:17.954Z,0
2017-07-01T20:09:19.798Z,0
2017-07-01T20:10:21.666Z,0
2017-07-01T20:11:23.500Z,0
2017-07-01T20:12:25.543Z,0
2017-07-01T20:13:27.236Z,0
2017-07-01T20:14:28.844Z,0
